sensor_id;sensor_type;location;lat;lon;timestamp;P1;durP1;ratioP1;P2;durP2;ratioP2
12921;SDS011;6528;48.086;16.282;2023-02-24T00:02:01;6.50;;;6.00;;
12921;SDS011;6528;48.086;16.282;2023-02-24T00:04:38;5.67;;;5.20;;
12921;SDS011;6528;48.086;16.282;2023-02-24T00:07:08;6.30;;;5.70;;
12921;SDS011;6528;48.086;16.282;2023-02-24T00:09:38;6.33;;;5.83;;
12921;SDS011;6528;48.086;16.282;2023-02-24T00:12:09;6.37;;;5.73;;
12921;SDS011;6528;48.086;16.282;2023-02-24T00:14:39;6.83;;;6.23;;
12921;SDS011;6528;48.086;16.282;2023-02-24T00:17:08;6.53;;;6.03;;
12921;SDS011;6528;48.086;16.282;2023-02-24T00:19:36;6.37;;;5.87;;
12921;SDS011;6528;48.086;16.282;2023-02-24T00:22:04;7.07;;;6.23;;
12921;SDS011;6528;48.086;16.282;2023-02-24T00:24:33;6.57;;;5.97;;
12921;SDS011;6528;48.086;16.282;2023-02-24T00:27:01;6.90;;;5.87;;
12921;SDS011;6528;48.086;16.282;2023-02-24T00:29:33;5.93;;;5.30;;
12921;SDS011;6528;48.086;16.282;2023-02-24T00:32:05;6.40;;;5.90;;
12921;SDS011;6528;48.086;16.282;2023-02-24T00:34:34;7.40;;;6.70;;
12921;SDS011;6528;48.086;16.282;2023-02-24T00:37:02;6.30;;;5.70;;
12921;SDS011;6528;48.086;16.282;2023-02-24T00:39:32;6.33;;;5.83;;
12921;SDS011;6528;48.086;16.282;2023-02-24T00:42:00;6.53;;;5.93;;
12921;SDS011;6528;48.086;16.282;2023-02-24T00:44:32;6.63;;;6.03;;
12921;SDS011;6528;48.086;16.282;2023-02-24T00:47:07;6.50;;;5.90;;
12921;SDS011;6528;48.086;16.282;2023-02-24T00:49:36;6.17;;;5.67;;
12921;SDS011;6528;48.086;16.282;2023-02-24T00:52:15;6.40;;;5.80;;
12921;SDS011;6528;48.086;16.282;2023-02-24T00:54:44;6.07;;;5.33;;
12921;SDS011;6528;48.086;16.282;2023-02-24T00:57:15;6.00;;;5.50;;
12921;SDS011;6528;48.086;16.282;2023-02-24T00:59:43;5.83;;;5.33;;
12921;SDS011;6528;48.086;16.282;2023-02-24T01:02:13;6.80;;;6.20;;
12921;SDS011;6528;48.086;16.282;2023-02-24T01:04:40;6.23;;;5.83;;
12921;SDS011;6528;48.086;16.282;2023-02-24T01:07:09;6.70;;;6.00;;
12921;SDS011;6528;48.086;16.282;2023-02-24T01:09:38;5.90;;;5.50;;
12921;SDS011;6528;48.086;16.282;2023-02-24T01:12:07;5.83;;;5.43;;
12921;SDS011;6528;48.086;16.282;2023-02-24T01:14:48;6.50;;;6.00;;
12921;SDS011;6528;48.086;16.282;2023-02-24T01:17:16;7.20;;;6.57;;
12921;SDS011;6528;48.086;16.282;2023-02-24T01:19:45;8.00;;;6.40;;
12921;SDS011;6528;48.086;16.282;2023-02-24T01:22:15;6.30;;;5.80;;
12921;SDS011;6528;48.086;16.282;2023-02-24T01:24:43;6.43;;;5.93;;
12921;SDS011;6528;48.086;16.282;2023-02-24T01:27:11;5.37;;;4.97;;
12921;SDS011;6528;48.086;16.282;2023-02-24T01:29:39;5.47;;;5.07;;
12921;SDS011;6528;48.086;16.282;2023-02-24T01:32:06;6.63;;;6.13;;
12921;SDS011;6528;48.086;16.282;2023-02-24T01:34:38;6.97;;;6.37;;
12921;SDS011;6528;48.086;16.282;2023-02-24T01:37:07;5.90;;;5.43;;
12921;SDS011;6528;48.086;16.282;2023-02-24T01:39:35;9.00;;;6.00;;
12921;SDS011;6528;48.086;16.282;2023-02-24T01:42:03;6.00;;;5.50;;
12921;SDS011;6528;48.086;16.282;2023-02-24T01:46:58;6.47;;;5.87;;
12921;SDS011;6528;48.086;16.282;2023-02-24T01:52:04;6.30;;;5.70;;
12921;SDS011;6528;48.086;16.282;2023-02-24T01:54:39;6.10;;;5.60;;
12921;SDS011;6528;48.086;16.282;2023-02-24T01:57:13;6.40;;;5.97;;
12921;SDS011;6528;48.086;16.282;2023-02-24T01:59:45;7.07;;;6.53;;
12921;SDS011;6528;48.086;16.282;2023-02-24T02:02:14;6.73;;;6.20;;
12921;SDS011;6528;48.086;16.282;2023-02-24T02:04:46;7.23;;;6.50;;
12921;SDS011;6528;48.086;16.282;2023-02-24T02:07:17;6.90;;;6.30;;
12921;SDS011;6528;48.086;16.282;2023-02-24T02:09:47;5.80;;;5.30;;
12921;SDS011;6528;48.086;16.282;2023-02-24T02:12:14;6.27;;;5.77;;
12921;SDS011;6528;48.086;16.282;2023-02-24T02:14:43;5.80;;;5.40;;
12921;SDS011;6528;48.086;16.282;2023-02-24T02:17:24;7.30;;;6.60;;
12921;SDS011;6528;48.086;16.282;2023-02-24T02:23:11;6.73;;;6.13;;
12921;SDS011;6528;48.086;16.282;2023-02-24T02:26:07;5.97;;;5.40;;
12921;SDS011;6528;48.086;16.282;2023-02-24T02:32:10;6.87;;;6.27;;
12921;SDS011;6528;48.086;16.282;2023-02-24T02:35:07;6.63;;;6.13;;
12921;SDS011;6528;48.086;16.282;2023-02-24T02:38:03;5.87;;;5.37;;
12921;SDS011;6528;48.086;16.282;2023-02-24T02:40:43;6.73;;;6.03;;
12921;SDS011;6528;48.086;16.282;2023-02-24T02:43:34;6.03;;;5.53;;
12921;SDS011;6528;48.086;16.282;2023-02-24T02:51:14;7.10;;;6.50;;
12921;SDS011;6528;48.086;16.282;2023-02-24T02:56:28;6.40;;;5.90;;
12921;SDS011;6528;48.086;16.282;2023-02-24T02:59:00;5.63;;;5.23;;
12921;SDS011;6528;48.086;16.282;2023-02-24T03:01:29;6.37;;;5.83;;
12921;SDS011;6528;48.086;16.282;2023-02-24T03:04:02;6.60;;;6.10;;
12921;SDS011;6528;48.086;16.282;2023-02-24T03:06:54;5.80;;;5.30;;
12921;SDS011;6528;48.086;16.282;2023-02-24T03:09:23;7.00;;;6.40;;
12921;SDS011;6528;48.086;16.282;2023-02-24T03:11:58;6.87;;;6.37;;
12921;SDS011;6528;48.086;16.282;2023-02-24T03:14:34;6.73;;;6.23;;
12921;SDS011;6528;48.086;16.282;2023-02-24T03:17:08;6.33;;;5.83;;
12921;SDS011;6528;48.086;16.282;2023-02-24T03:19:41;6.53;;;6.03;;
12921;SDS011;6528;48.086;16.282;2023-02-24T03:22:15;6.13;;;5.57;;
12921;SDS011;6528;48.086;16.282;2023-02-24T03:24:50;5.83;;;5.33;;
12921;SDS011;6528;48.086;16.282;2023-02-24T03:27:18;5.80;;;5.40;;
12921;SDS011;6528;48.086;16.282;2023-02-24T03:29:54;5.30;;;4.90;;
12921;SDS011;6528;48.086;16.282;2023-02-24T03:32:26;6.20;;;5.80;;
12921;SDS011;6528;48.086;16.282;2023-02-24T03:35:07;6.13;;;5.63;;
12921;SDS011;6528;48.086;16.282;2023-02-24T03:37:47;6.37;;;5.87;;
12921;SDS011;6528;48.086;16.282;2023-02-24T03:40:17;6.30;;;5.80;;
12921;SDS011;6528;48.086;16.282;2023-02-24T03:42:46;5.67;;;5.27;;
12921;SDS011;6528;48.086;16.282;2023-02-24T03:45:16;6.03;;;5.53;;
12921;SDS011;6528;48.086;16.282;2023-02-24T03:47:43;5.40;;;5.00;;
12921;SDS011;6528;48.086;16.282;2023-02-24T03:50:12;7.30;;;5.57;;
12921;SDS011;6528;48.086;16.282;2023-02-24T03:52:46;5.87;;;5.37;;
12921;SDS011;6528;48.086;16.282;2023-02-24T04:03:34;5.80;;;5.30;;
12921;SDS011;6528;48.086;16.282;2023-02-24T04:06:31;6.10;;;5.60;;
12921;SDS011;6528;48.086;16.282;2023-02-24T04:09:08;5.50;;;5.00;;
12921;SDS011;6528;48.086;16.282;2023-02-24T04:14:16;6.97;;;6.37;;
12921;SDS011;6528;48.086;16.282;2023-02-24T04:16:52;5.43;;;5.03;;
12921;SDS011;6528;48.086;16.282;2023-02-24T04:19:26;6.10;;;5.70;;
12921;SDS011;6528;48.086;16.282;2023-02-24T04:21:57;5.80;;;5.30;;
12921;SDS011;6528;48.086;16.282;2023-02-24T04:24:26;5.60;;;5.20;;
12921;SDS011;6528;48.086;16.282;2023-02-24T04:26:57;5.23;;;4.83;;
12921;SDS011;6528;48.086;16.282;2023-02-24T04:29:26;6.03;;;5.53;;
12921;SDS011;6528;48.086;16.282;2023-02-24T04:32:02;6.50;;;6.00;;
12921;SDS011;6528;48.086;16.282;2023-02-24T04:34:32;5.87;;;5.47;;
12921;SDS011;6528;48.086;16.282;2023-02-24T04:37:00;5.87;;;5.47;;
12921;SDS011;6528;48.086;16.282;2023-02-24T04:39:27;5.53;;;5.13;;
12921;SDS011;6528;48.086;16.282;2023-02-24T04:41:56;5.50;;;5.10;;
12921;SDS011;6528;48.086;16.282;2023-02-24T04:44:23;5.30;;;4.80;;
12921;SDS011;6528;48.086;16.282;2023-02-24T04:46:51;6.80;;;5.50;;
12921;SDS011;6528;48.086;16.282;2023-02-24T04:49:18;5.83;;;5.33;;
12921;SDS011;6528;48.086;16.282;2023-02-24T04:51:45;5.50;;;5.10;;
12921;SDS011;6528;48.086;16.282;2023-02-24T04:54:14;6.13;;;5.53;;
12921;SDS011;6528;48.086;16.282;2023-02-24T04:56:46;5.83;;;5.33;;
12921;SDS011;6528;48.086;16.282;2023-02-24T04:59:19;6.17;;;5.60;;
12921;SDS011;6528;48.086;16.282;2023-02-24T05:01:47;6.70;;;6.20;;
12921;SDS011;6528;48.086;16.282;2023-02-24T05:04:18;5.97;;;5.47;;
12921;SDS011;6528;48.086;16.282;2023-02-24T05:06:45;6.00;;;5.60;;
12921;SDS011;6528;48.086;16.282;2023-02-24T05:09:13;5.50;;;5.10;;
12921;SDS011;6528;48.086;16.282;2023-02-24T05:11:48;5.80;;;5.20;;
12921;SDS011;6528;48.086;16.282;2023-02-24T05:14:17;5.77;;;5.33;;
12921;SDS011;6528;48.086;16.282;2023-02-24T05:16:47;6.10;;;5.50;;
12921;SDS011;6528;48.086;16.282;2023-02-24T05:19:15;5.37;;;4.97;;
12921;SDS011;6528;48.086;16.282;2023-02-24T05:22:02;7.17;;;5.47;;
12921;SDS011;6528;48.086;16.282;2023-02-24T05:24:32;5.30;;;4.90;;
12921;SDS011;6528;48.086;16.282;2023-02-24T05:27:00;5.80;;;5.30;;
12921;SDS011;6528;48.086;16.282;2023-02-24T05:29:29;5.77;;;5.37;;
12921;SDS011;6528;48.086;16.282;2023-02-24T05:31:58;5.60;;;5.10;;
12921;SDS011;6528;48.086;16.282;2023-02-24T05:34:26;5.90;;;5.50;;
12921;SDS011;6528;48.086;16.282;2023-02-24T05:36:56;6.23;;;5.73;;
12921;SDS011;6528;48.086;16.282;2023-02-24T05:39:24;5.60;;;5.20;;
12921;SDS011;6528;48.086;16.282;2023-02-24T05:41:52;6.47;;;5.97;;
12921;SDS011;6528;48.086;16.282;2023-02-24T05:44:23;5.33;;;4.93;;
12921;SDS011;6528;48.086;16.282;2023-02-24T05:46:53;5.53;;;5.20;;
12921;SDS011;6528;48.086;16.282;2023-02-24T05:49:28;6.33;;;5.83;;
12921;SDS011;6528;48.086;16.282;2023-02-24T05:51:58;5.33;;;4.93;;
12921;SDS011;6528;48.086;16.282;2023-02-24T05:54:34;5.60;;;5.20;;
12921;SDS011;6528;48.086;16.282;2023-02-24T05:57:07;5.33;;;4.93;;
12921;SDS011;6528;48.086;16.282;2023-02-24T05:59:39;6.43;;;5.93;;
12921;SDS011;6528;48.086;16.282;2023-02-24T06:02:07;5.70;;;5.20;;
12921;SDS011;6528;48.086;16.282;2023-02-24T06:04:40;6.53;;;6.07;;
12921;SDS011;6528;48.086;16.282;2023-02-24T06:07:17;6.90;;;5.90;;
12921;SDS011;6528;48.086;16.282;2023-02-24T06:09:48;6.23;;;5.73;;
12921;SDS011;6528;48.086;16.282;2023-02-24T06:12:19;5.87;;;5.37;;
12921;SDS011;6528;48.086;16.282;2023-02-24T06:14:47;7.27;;;6.10;;
12921;SDS011;6528;48.086;16.282;2023-02-24T06:17:14;7.43;;;6.83;;
12921;SDS011;6528;48.086;16.282;2023-02-24T06:19:42;6.70;;;6.10;;
12921;SDS011;6528;48.086;16.282;2023-02-24T06:22:11;6.30;;;5.70;;
12921;SDS011;6528;48.086;16.282;2023-02-24T06:24:39;6.77;;;5.60;;
12921;SDS011;6528;48.086;16.282;2023-02-24T06:27:16;6.23;;;5.63;;
12921;SDS011;6528;48.086;16.282;2023-02-24T06:29:45;6.20;;;5.67;;
12921;SDS011;6528;48.086;16.282;2023-02-24T06:32:16;7.03;;;6.43;;
12921;SDS011;6528;48.086;16.282;2023-02-24T06:34:43;7.30;;;6.17;;
12921;SDS011;6528;48.086;16.282;2023-02-24T06:37:11;7.70;;;6.90;;
12921;SDS011;6528;48.086;16.282;2023-02-24T06:39:39;8.80;;;6.90;;
12921;SDS011;6528;48.086;16.282;2023-02-24T06:42:06;11.20;;;7.93;;
12921;SDS011;6528;48.086;16.282;2023-02-24T06:44:36;9.83;;;8.57;;
12921;SDS011;6528;48.086;16.282;2023-02-24T06:47:04;12.40;;;8.33;;
12921;SDS011;6528;48.086;16.282;2023-02-24T06:49:32;11.80;;;8.77;;
12921;SDS011;6528;48.086;16.282;2023-02-24T06:51:59;10.80;;;8.60;;
12921;SDS011;6528;48.086;16.282;2023-02-24T06:54:26;10.70;;;8.40;;
12921;SDS011;6528;48.086;16.282;2023-02-24T06:56:57;16.70;;;10.00;;
12921;SDS011;6528;48.086;16.282;2023-02-24T06:59:24;14.77;;;9.07;;
12921;SDS011;6528;48.086;16.282;2023-02-24T07:01:57;14.03;;;9.80;;
12921;SDS011;6528;48.086;16.282;2023-02-24T07:04:27;15.70;;;8.77;;
12921;SDS011;6528;48.086;16.282;2023-02-24T07:06:55;14.00;;;9.73;;
12921;SDS011;6528;48.086;16.282;2023-02-24T07:09:29;17.50;;;10.33;;
12921;SDS011;6528;48.086;16.282;2023-02-24T07:11:56;17.20;;;11.23;;
12921;SDS011;6528;48.086;16.282;2023-02-24T07:14:25;16.83;;;12.07;;
12921;SDS011;6528;48.086;16.282;2023-02-24T07:16:56;17.77;;;12.80;;
12921;SDS011;6528;48.086;16.282;2023-02-24T07:19:24;22.20;;;13.13;;
12921;SDS011;6528;48.086;16.282;2023-02-24T07:21:55;15.77;;;13.13;;
12921;SDS011;6528;48.086;16.282;2023-02-24T07:24:27;17.43;;;11.97;;
12921;SDS011;6528;48.086;16.282;2023-02-24T07:26:59;15.97;;;13.53;;
12921;SDS011;6528;48.086;16.282;2023-02-24T07:29:47;20.17;;;13.50;;
12921;SDS011;6528;48.086;16.282;2023-02-24T07:32:18;19.83;;;13.10;;
12921;SDS011;6528;48.086;16.282;2023-02-24T07:34:47;14.13;;;11.77;;
12921;SDS011;6528;48.086;16.282;2023-02-24T07:37:14;17.90;;;13.03;;
12921;SDS011;6528;48.086;16.282;2023-02-24T07:39:41;18.80;;;13.40;;
12921;SDS011;6528;48.086;16.282;2023-02-24T07:42:09;21.33;;;13.37;;
12921;SDS011;6528;48.086;16.282;2023-02-24T07:44:38;22.03;;;15.23;;
12921;SDS011;6528;48.086;16.282;2023-02-24T07:47:05;18.07;;;14.50;;
12921;SDS011;6528;48.086;16.282;2023-02-24T07:49:33;22.13;;;15.67;;
12921;SDS011;6528;48.086;16.282;2023-02-24T07:52:00;19.80;;;15.10;;
12921;SDS011;6528;48.086;16.282;2023-02-24T07:54:27;16.03;;;14.33;;
12921;SDS011;6528;48.086;16.282;2023-02-24T07:56:56;18.87;;;14.60;;
12921;SDS011;6528;48.086;16.282;2023-02-24T07:59:25;18.40;;;13.40;;
12921;SDS011;6528;48.086;16.282;2023-02-24T08:01:57;16.87;;;12.73;;
12921;SDS011;6528;48.086;16.282;2023-02-24T08:04:26;16.60;;;13.27;;
12921;SDS011;6528;48.086;16.282;2023-02-24T08:06:55;15.23;;;13.00;;
12921;SDS011;6528;48.086;16.282;2023-02-24T08:09:25;18.63;;;13.60;;
12921;SDS011;6528;48.086;16.282;2023-02-24T08:14:47;15.93;;;13.90;;
12921;SDS011;6528;48.086;16.282;2023-02-24T08:17:18;20.23;;;15.10;;
12921;SDS011;6528;48.086;16.282;2023-02-24T08:19:47;20.90;;;16.13;;
12921;SDS011;6528;48.086;16.282;2023-02-24T08:22:16;20.83;;;15.93;;
12921;SDS011;6528;48.086;16.282;2023-02-24T08:24:46;19.93;;;15.53;;
12921;SDS011;6528;48.086;16.282;2023-02-24T08:27:20;21.13;;;15.77;;
12921;SDS011;6528;48.086;16.282;2023-02-24T08:29:52;16.57;;;14.87;;
12921;SDS011;6528;48.086;16.282;2023-02-24T08:32:34;17.07;;;14.10;;
12921;SDS011;6528;48.086;16.282;2023-02-24T08:37:41;18.40;;;14.30;;
12921;SDS011;6528;48.086;16.282;2023-02-24T08:40:24;19.00;;;15.50;;
12921;SDS011;6528;48.086;16.282;2023-02-24T08:42:59;22.10;;;18.87;;
12921;SDS011;6528;48.086;16.282;2023-02-24T08:46:01;26.20;;;21.33;;
12921;SDS011;6528;48.086;16.282;2023-02-24T08:48:54;25.40;;;21.10;;
12921;SDS011;6528;48.086;16.282;2023-02-24T08:51:30;23.70;;;20.77;;
12921;SDS011;6528;48.086;16.282;2023-02-24T08:54:07;26.70;;;20.90;;
12921;SDS011;6528;48.086;16.282;2023-02-24T08:56:57;22.90;;;20.40;;
12921;SDS011;6528;48.086;16.282;2023-02-24T08:59:34;25.80;;;19.50;;
12921;SDS011;6528;48.086;16.282;2023-02-24T09:02:13;23.00;;;19.87;;
12921;SDS011;6528;48.086;16.282;2023-02-24T09:04:53;23.87;;;21.20;;
12921;SDS011;6528;48.086;16.282;2023-02-24T09:10:01;24.63;;;21.80;;
12921;SDS011;6528;48.086;16.282;2023-02-24T09:12:36;22.17;;;19.77;;
12921;SDS011;6528;48.086;16.282;2023-02-24T09:15:06;22.60;;;17.90;;
12921;SDS011;6528;48.086;16.282;2023-02-24T09:17:34;20.73;;;18.13;;
12921;SDS011;6528;48.086;16.282;2023-02-24T09:20:12;23.10;;;17.57;;
12921;SDS011;6528;48.086;16.282;2023-02-24T09:22:53;19.13;;;17.10;;
12921;SDS011;6528;48.086;16.282;2023-02-24T09:25:23;17.73;;;15.93;;
12921;SDS011;6528;48.086;16.282;2023-02-24T09:28:07;19.23;;;17.20;;
12921;SDS011;6528;48.086;16.282;2023-02-24T09:30:35;18.43;;;16.53;;
12921;SDS011;6528;48.086;16.282;2023-02-24T09:33:24;19.30;;;16.17;;
12921;SDS011;6528;48.086;16.282;2023-02-24T09:36:00;17.50;;;15.63;;
12921;SDS011;6528;48.086;16.282;2023-02-24T09:38:36;16.47;;;14.67;;
12921;SDS011;6528;48.086;16.282;2023-02-24T09:47:15;16.10;;;14.53;;
12921;SDS011;6528;48.086;16.282;2023-02-24T09:53:08;16.10;;;14.50;;
12921;SDS011;6528;48.086;16.282;2023-02-24T09:55:49;15.60;;;14.10;;
12921;SDS011;6528;48.086;16.282;2023-02-24T09:58:35;16.27;;;13.60;;
12921;SDS011;6528;48.086;16.282;2023-02-24T10:06:52;14.80;;;13.13;;
12921;SDS011;6528;48.086;16.282;2023-02-24T10:09:24;13.23;;;11.93;;
12921;SDS011;6528;48.086;16.282;2023-02-24T10:17:42;11.80;;;10.60;;
12921;SDS011;6528;48.086;16.282;2023-02-24T10:20:16;11.73;;;10.50;;
12921;SDS011;6528;48.086;16.282;2023-02-24T10:31:58;10.97;;;9.80;;
12921;SDS011;6528;48.086;16.282;2023-02-24T10:34:32;12.20;;;9.97;;
12921;SDS011;6528;48.086;16.282;2023-02-24T10:37:21;10.50;;;9.37;;
12921;SDS011;6528;48.086;16.282;2023-02-24T10:39:55;10.17;;;9.20;;
12921;SDS011;6528;48.086;16.282;2023-02-24T10:42:36;10.83;;;9.70;;
12921;SDS011;6528;48.086;16.282;2023-02-24T10:45:14;10.43;;;9.40;;
12921;SDS011;6528;48.086;16.282;2023-02-24T10:47:54;9.83;;;8.83;;
12921;SDS011;6528;48.086;16.282;2023-02-24T10:50:26;10.97;;;9.87;;
12921;SDS011;6528;48.086;16.282;2023-02-24T10:53:09;12.70;;;11.60;;
12921;SDS011;6528;48.086;16.282;2023-02-24T10:55:54;13.70;;;12.30;;
12921;SDS011;6528;48.086;16.282;2023-02-24T10:58:43;12.90;;;11.50;;
12921;SDS011;6528;48.086;16.282;2023-02-24T11:01:12;14.00;;;12.60;;
12921;SDS011;6528;48.086;16.282;2023-02-24T11:03:52;13.07;;;11.67;;
12921;SDS011;6528;48.086;16.282;2023-02-24T11:06:27;12.63;;;11.43;;
12921;SDS011;6528;48.086;16.282;2023-02-24T11:11:45;11.37;;;10.27;;
12921;SDS011;6528;48.086;16.282;2023-02-24T11:14:36;11.93;;;10.50;;
12921;SDS011;6528;48.086;16.282;2023-02-24T11:17:33;9.97;;;9.03;;
12921;SDS011;6528;48.086;16.282;2023-02-24T11:20:03;11.80;;;10.60;;
12921;SDS011;6528;48.086;16.282;2023-02-24T11:23:21;12.27;;;10.40;;
12921;SDS011;6528;48.086;16.282;2023-02-24T11:25:50;10.40;;;9.43;;
12921;SDS011;6528;48.086;16.282;2023-02-24T11:28:32;9.77;;;8.87;;
12921;SDS011;6528;48.086;16.282;2023-02-24T11:31:11;9.80;;;8.90;;
12921;SDS011;6528;48.086;16.282;2023-02-24T11:34:15;9.30;;;8.47;;
12921;SDS011;6528;48.086;16.282;2023-02-24T11:40:16;9.53;;;8.53;;
12921;SDS011;6528;48.086;16.282;2023-02-24T11:43:08;8.60;;;7.73;;
12921;SDS011;6528;48.086;16.282;2023-02-24T11:45:50;8.90;;;8.10;;
12921;SDS011;6528;48.086;16.282;2023-02-24T11:48:34;9.87;;;9.00;;
12921;SDS011;6528;48.086;16.282;2023-02-24T11:51:04;9.80;;;8.80;;
12921;SDS011;6528;48.086;16.282;2023-02-24T11:56:01;9.07;;;8.17;;
12921;SDS011;6528;48.086;16.282;2023-02-24T11:58:41;9.90;;;8.27;;
12921;SDS011;6528;48.086;16.282;2023-02-24T12:09:33;10.40;;;8.47;;
12921;SDS011;6528;48.086;16.282;2023-02-24T12:12:14;9.07;;;8.17;;
12921;SDS011;6528;48.086;16.282;2023-02-24T12:14:54;9.03;;;8.20;;
12921;SDS011;6528;48.086;16.282;2023-02-24T12:19:59;8.70;;;7.90;;
12921;SDS011;6528;48.086;16.282;2023-02-24T12:22:51;8.93;;;8.03;;
12921;SDS011;6528;48.086;16.282;2023-02-24T12:25:28;8.93;;;8.03;;
12921;SDS011;6528;48.086;16.282;2023-02-24T12:28:17;8.20;;;7.50;;
12921;SDS011;6528;48.086;16.282;2023-02-24T12:33:55;9.30;;;8.47;;
12921;SDS011;6528;48.086;16.282;2023-02-24T12:36:30;8.53;;;7.67;;
12921;SDS011;6528;48.086;16.282;2023-02-24T12:39:31;7.90;;;7.20;;
12921;SDS011;6528;48.086;16.282;2023-02-24T12:42:13;7.57;;;6.87;;
12921;SDS011;6528;48.086;16.282;2023-02-24T12:55:48;8.70;;;7.90;;
12921;SDS011;6528;48.086;16.282;2023-02-24T12:58:27;9.33;;;8.53;;
12921;SDS011;6528;48.086;16.282;2023-02-24T13:06:39;8.73;;;8.03;;
12921;SDS011;6528;48.086;16.282;2023-02-24T13:14:29;9.03;;;8.33;;
12921;SDS011;6528;48.086;16.282;2023-02-24T13:19:37;10.23;;;9.33;;
12921;SDS011;6528;48.086;16.282;2023-02-24T13:22:06;10.07;;;9.17;;
12921;SDS011;6528;48.086;16.282;2023-02-24T13:24:36;10.03;;;9.13;;
12921;SDS011;6528;48.086;16.282;2023-02-24T13:27:16;9.90;;;9.10;;
12921;SDS011;6528;48.086;16.282;2023-02-24T13:29:53;9.23;;;8.43;;
12921;SDS011;6528;48.086;16.282;2023-02-24T13:32:27;10.00;;;9.10;;
12921;SDS011;6528;48.086;16.282;2023-02-24T13:35:01;9.37;;;8.47;;
12921;SDS011;6528;48.086;16.282;2023-02-24T13:37:41;9.23;;;8.33;;
12921;SDS011;6528;48.086;16.282;2023-02-24T13:45:24;9.60;;;8.80;;
12921;SDS011;6528;48.086;16.282;2023-02-24T13:47:58;10.93;;;8.70;;
12921;SDS011;6528;48.086;16.282;2023-02-24T14:01:26;8.90;;;8.20;;
12921;SDS011;6528;48.086;16.282;2023-02-24T14:06:59;8.50;;;7.70;;
12921;SDS011;6528;48.086;16.282;2023-02-24T14:09:32;9.70;;;7.67;;
12921;SDS011;6528;48.086;16.282;2023-02-24T14:12:07;8.80;;;8.00;;
12921;SDS011;6528;48.086;16.282;2023-02-24T14:14:39;8.43;;;7.63;;
12921;SDS011;6528;48.086;16.282;2023-02-24T14:17:18;7.93;;;7.23;;
12921;SDS011;6528;48.086;16.282;2023-02-24T14:19:51;8.20;;;7.40;;
12921;SDS011;6528;48.086;16.282;2023-02-24T14:22:19;8.23;;;7.53;;
12921;SDS011;6528;48.086;16.282;2023-02-24T14:24:46;8.10;;;7.30;;
12921;SDS011;6528;48.086;16.282;2023-02-24T14:27:35;7.93;;;7.23;;
12921;SDS011;6528;48.086;16.282;2023-02-24T14:30:02;8.30;;;7.50;;
12921;SDS011;6528;48.086;16.282;2023-02-24T14:32:30;8.00;;;7.40;;
12921;SDS011;6528;48.086;16.282;2023-02-24T14:34:59;7.43;;;6.83;;
12921;SDS011;6528;48.086;16.282;2023-02-24T14:37:27;7.40;;;6.80;;
12921;SDS011;6528;48.086;16.282;2023-02-24T14:39:57;8.17;;;7.57;;
12921;SDS011;6528;48.086;16.282;2023-02-24T14:42:25;7.33;;;6.63;;
12921;SDS011;6528;48.086;16.282;2023-02-24T14:44:54;8.03;;;7.33;;
12921;SDS011;6528;48.086;16.282;2023-02-24T14:47:23;8.57;;;7.80;;
12921;SDS011;6528;48.086;16.282;2023-02-24T14:49:57;7.83;;;7.17;;
12921;SDS011;6528;48.086;16.282;2023-02-24T14:52:46;7.87;;;7.17;;
12921;SDS011;6528;48.086;16.282;2023-02-24T14:55:28;8.00;;;7.03;;
12921;SDS011;6528;48.086;16.282;2023-02-24T15:00:58;7.37;;;6.77;;
12921;SDS011;6528;48.086;16.282;2023-02-24T15:03:34;8.70;;;8.00;;
12921;SDS011;6528;48.086;16.282;2023-02-24T15:06:06;7.93;;;7.30;;
12921;SDS011;6528;48.086;16.282;2023-02-24T15:13:41;7.43;;;6.77;;
12921;SDS011;6528;48.086;16.282;2023-02-24T15:16:23;7.80;;;7.13;;
12921;SDS011;6528;48.086;16.282;2023-02-24T15:21:56;7.90;;;7.10;;
12921;SDS011;6528;48.086;16.282;2023-02-24T15:24:28;7.83;;;7.13;;
12921;SDS011;6528;48.086;16.282;2023-02-24T15:29:39;7.33;;;6.70;;
12921;SDS011;6528;48.086;16.282;2023-02-24T15:32:14;8.13;;;7.33;;
12921;SDS011;6528;48.086;16.282;2023-02-24T15:34:44;7.20;;;6.57;;
12921;SDS011;6528;48.086;16.282;2023-02-24T15:37:14;8.87;;;7.97;;
12921;SDS011;6528;48.086;16.282;2023-02-24T15:39:49;8.60;;;7.80;;
12921;SDS011;6528;48.086;16.282;2023-02-24T15:42:22;8.47;;;7.80;;
12921;SDS011;6528;48.086;16.282;2023-02-24T15:44:57;8.93;;;8.13;;
12921;SDS011;6528;48.086;16.282;2023-02-24T15:47:27;10.47;;;9.47;;
12921;SDS011;6528;48.086;16.282;2023-02-24T15:49:57;9.13;;;8.23;;
12921;SDS011;6528;48.086;16.282;2023-02-24T15:52:25;10.60;;;8.77;;
12921;SDS011;6528;48.086;16.282;2023-02-24T15:54:54;9.33;;;8.43;;
12921;SDS011;6528;48.086;16.282;2023-02-24T15:57:23;8.73;;;7.93;;
12921;SDS011;6528;48.086;16.282;2023-02-24T15:59:50;8.63;;;7.83;;
12921;SDS011;6528;48.086;16.282;2023-02-24T16:02:18;9.60;;;8.43;;
12921;SDS011;6528;48.086;16.282;2023-02-24T16:04:46;12.77;;;8.47;;
12921;SDS011;6528;48.086;16.282;2023-02-24T16:07:23;12.93;;;9.60;;
12921;SDS011;6528;48.086;16.282;2023-02-24T16:09:55;9.80;;;8.80;;
12921;SDS011;6528;48.086;16.282;2023-02-24T16:12:31;8.90;;;8.00;;
12921;SDS011;6528;48.086;16.282;2023-02-24T16:15:02;8.77;;;8.03;;
12921;SDS011;6528;48.086;16.282;2023-02-24T16:17:38;10.60;;;9.40;;
12921;SDS011;6528;48.086;16.282;2023-02-24T16:20:28;9.80;;;7.50;;
12921;SDS011;6528;48.086;16.282;2023-02-24T16:22:57;8.67;;;7.83;;
12921;SDS011;6528;48.086;16.282;2023-02-24T16:25:25;7.73;;;7.03;;
12921;SDS011;6528;48.086;16.282;2023-02-24T16:27:54;9.73;;;8.50;;
12921;SDS011;6528;48.086;16.282;2023-02-24T16:30:24;8.70;;;7.87;;
12921;SDS011;6528;48.086;16.282;2023-02-24T16:32:56;7.97;;;7.27;;
12921;SDS011;6528;48.086;16.282;2023-02-24T16:35:24;8.70;;;7.90;;
12921;SDS011;6528;48.086;16.282;2023-02-24T16:37:51;8.67;;;7.97;;
12921;SDS011;6528;48.086;16.282;2023-02-24T16:40:28;8.77;;;7.97;;
12921;SDS011;6528;48.086;16.282;2023-02-24T16:42:58;8.43;;;7.63;;
12921;SDS011;6528;48.086;16.282;2023-02-24T16:45:26;9.20;;;8.00;;
12921;SDS011;6528;48.086;16.282;2023-02-24T16:47:55;9.10;;;8.20;;
12921;SDS011;6528;48.086;16.282;2023-02-24T16:50:31;9.13;;;8.10;;
12921;SDS011;6528;48.086;16.282;2023-02-24T16:53:06;8.10;;;7.33;;
12921;SDS011;6528;48.086;16.282;2023-02-24T16:55:36;13.60;;;8.33;;
12921;SDS011;6528;48.086;16.282;2023-02-24T16:58:03;9.67;;;8.10;;
12921;SDS011;6528;48.086;16.282;2023-02-24T17:00:29;8.20;;;7.00;;
12921;SDS011;6528;48.086;16.282;2023-02-24T17:02:57;9.50;;;7.70;;
12921;SDS011;6528;48.086;16.282;2023-02-24T17:05:25;11.00;;;7.63;;
12921;SDS011;6528;48.086;16.282;2023-02-24T17:07:53;6.87;;;6.30;;
12921;SDS011;6528;48.086;16.282;2023-02-24T17:10:23;7.93;;;7.20;;
12921;SDS011;6528;48.086;16.282;2023-02-24T17:12:50;8.47;;;7.57;;
12921;SDS011;6528;48.086;16.282;2023-02-24T17:15:19;7.97;;;6.67;;
12921;SDS011;6528;48.086;16.282;2023-02-24T17:17:47;8.13;;;7.33;;
12921;SDS011;6528;48.086;16.282;2023-02-24T17:20:14;8.30;;;7.60;;
12921;SDS011;6528;48.086;16.282;2023-02-24T17:22:44;7.93;;;7.23;;
12921;SDS011;6528;48.086;16.282;2023-02-24T17:25:18;8.47;;;7.30;;
12921;SDS011;6528;48.086;16.282;2023-02-24T17:27:47;7.63;;;6.90;;
12921;SDS011;6528;48.086;16.282;2023-02-24T17:30:16;7.83;;;7.13;;
12921;SDS011;6528;48.086;16.282;2023-02-24T17:32:45;9.10;;;7.70;;
12921;SDS011;6528;48.086;16.282;2023-02-24T17:35:12;7.60;;;7.00;;
12921;SDS011;6528;48.086;16.282;2023-02-24T17:37:39;8.20;;;7.40;;
12921;SDS011;6528;48.086;16.282;2023-02-24T17:40:06;6.97;;;6.37;;
12921;SDS011;6528;48.086;16.282;2023-02-24T17:42:33;7.10;;;6.50;;
12921;SDS011;6528;48.086;16.282;2023-02-24T17:45:00;7.37;;;6.77;;